sensor_id;sensor_type;location;lat;lon;timestamp;P1;durP1;ratioP1;P2;durP2;ratioP2
28828;SDS011;15966;51.540;11.870;2023-04-01T00:00:46;2.78;;;1.73;;
28828;SDS011;15966;51.540;11.870;2023-04-01T00:03:12;3.72;;;1.45;;
28828;SDS011;15966;51.540;11.870;2023-04-01T00:05:39;4.22;;;1.35;;
28828;SDS011;15966;51.540;11.870;2023-04-01T00:08:05;2.25;;;1.40;;
28828;SDS011;15966;51.540;11.870;2023-04-01T00:10:31;3.15;;;1.30;;
28828;SDS011;15966;51.540;11.870;2023-04-01T00:12:57;4.28;;;2.40;;
28828;SDS011;15966;51.540;11.870;2023-04-01T00:15:23;1.58;;;1.38;;
28828;SDS011;15966;51.540;11.870;2023-04-01T00:17:50;4.07;;;1.92;;
28828;SDS011;15966;51.540;11.870;2023-04-01T00:20:16;2.00;;;1.27;;
28828;SDS011;15966;51.540;11.870;2023-04-01T00:22:42;3.60;;;1.98;;
28828;SDS011;15966;51.540;11.870;2023-04-01T00:25:08;8.05;;;1.55;;
28828;SDS011;15966;51.540;11.870;2023-04-01T00:27:34;3.50;;;1.73;;
28828;SDS011;15966;51.540;11.870;2023-04-01T00:30:00;3.88;;;1.60;;
28828;SDS011;15966;51.540;11.870;2023-04-01T00:32:27;5.20;;;1.73;;
28828;SDS011;15966;51.540;11.870;2023-04-01T00:34:53;4.88;;;1.85;;
28828;SDS011;15966;51.540;11.870;2023-04-01T00:37:20;4.22;;;1.83;;
28828;SDS011;15966;51.540;11.870;2023-04-01T00:39:46;5.32;;;2.13;;
28828;SDS011;15966;51.540;11.870;2023-04-01T00:42:12;6.90;;;1.70;;
28828;SDS011;15966;51.540;11.870;2023-04-01T00:44:38;3.15;;;1.73;;
28828;SDS011;15966;51.540;11.870;2023-04-01T00:47:05;3.10;;;1.27;;
28828;SDS011;15966;51.540;11.870;2023-04-01T00:49:33;3.85;;;1.52;;
28828;SDS011;15966;51.540;11.870;2023-04-01T00:52:02;4.10;;;1.55;;
28828;SDS011;15966;51.540;11.870;2023-04-01T00:54:29;2.88;;;1.73;;
28828;SDS011;15966;51.540;11.870;2023-04-01T00:57:11;3.40;;;1.58;;
28828;SDS011;15966;51.540;11.870;2023-04-01T00:59:42;3.08;;;1.33;;
28828;SDS011;15966;51.540;11.870;2023-04-01T01:02:10;1.17;;;1.05;;
28828;SDS011;15966;51.540;11.870;2023-04-01T01:04:37;4.10;;;1.70;;
28828;SDS011;15966;51.540;11.870;2023-04-01T01:10:07;2.30;;;1.67;;
28828;SDS011;15966;51.540;11.870;2023-04-01T01:15:41;3.13;;;1.30;;
28828;SDS011;15966;51.540;11.870;2023-04-01T01:18:22;3.45;;;1.67;;
28828;SDS011;15966;51.540;11.870;2023-04-01T01:26:56;2.50;;;1.20;;
28828;SDS011;15966;51.540;11.870;2023-04-01T01:32:17;4.15;;;1.80;;
28828;SDS011;15966;51.540;11.870;2023-04-01T01:35:14;1.77;;;1.50;;
28828;SDS011;15966;51.540;11.870;2023-04-01T01:37:46;1.48;;;1.20;;
28828;SDS011;15966;51.540;11.870;2023-04-01T01:40:15;2.80;;;1.88;;
28828;SDS011;15966;51.540;11.870;2023-04-01T01:42:43;2.78;;;1.70;;
28828;SDS011;15966;51.540;11.870;2023-04-01T01:45:12;3.20;;;1.65;;
28828;SDS011;15966;51.540;11.870;2023-04-01T01:47:43;4.95;;;1.70;;
28828;SDS011;15966;51.540;11.870;2023-04-01T01:50:09;3.80;;;1.65;;
28828;SDS011;15966;51.540;11.870;2023-04-01T01:52:36;5.47;;;1.37;;
28828;SDS011;15966;51.540;11.870;2023-04-01T01:55:02;3.22;;;1.35;;
28828;SDS011;15966;51.540;11.870;2023-04-01T01:57:47;3.92;;;1.58;;
28828;SDS011;15966;51.540;11.870;2023-04-01T02:00:13;2.05;;;0.93;;
28828;SDS011;15966;51.540;11.870;2023-04-01T02:02:40;2.95;;;1.85;;
28828;SDS011;15966;51.540;11.870;2023-04-01T02:05:08;4.05;;;1.42;;
28828;SDS011;15966;51.540;11.870;2023-04-01T02:07:36;2.60;;;1.55;;
28828;SDS011;15966;51.540;11.870;2023-04-01T02:10:04;4.10;;;1.25;;
28828;SDS011;15966;51.540;11.870;2023-04-01T02:12:31;4.73;;;1.50;;
28828;SDS011;15966;51.540;11.870;2023-04-01T02:15:00;4.25;;;1.55;;
28828;SDS011;15966;51.540;11.870;2023-04-01T02:17:31;2.80;;;1.63;;
28828;SDS011;15966;51.540;11.870;2023-04-01T02:22:38;2.60;;;1.73;;
28828;SDS011;15966;51.540;11.870;2023-04-01T02:25:12;3.00;;;1.73;;
28828;SDS011;15966;51.540;11.870;2023-04-01T02:27:40;2.60;;;1.65;;
28828;SDS011;15966;51.540;11.870;2023-04-01T02:30:08;4.13;;;1.80;;
28828;SDS011;15966;51.540;11.870;2023-04-01T02:32:35;4.03;;;2.03;;
28828;SDS011;15966;51.540;11.870;2023-04-01T02:35:03;2.17;;;1.23;;
28828;SDS011;15966;51.540;11.870;2023-04-01T02:37:31;2.40;;;1.73;;
28828;SDS011;15966;51.540;11.870;2023-04-01T02:40:02;4.38;;;1.85;;
28828;SDS011;15966;51.540;11.870;2023-04-01T02:42:31;7.30;;;2.00;;
28828;SDS011;15966;51.540;11.870;2023-04-01T02:44:57;2.60;;;1.50;;
28828;SDS011;15966;51.540;11.870;2023-04-01T02:47:23;1.95;;;1.50;;
28828;SDS011;15966;51.540;11.870;2023-04-01T02:49:49;2.30;;;1.63;;
28828;SDS011;15966;51.540;11.870;2023-04-01T02:52:15;3.25;;;1.55;;
28828;SDS011;15966;51.540;11.870;2023-04-01T02:54:42;4.13;;;1.75;;
28828;SDS011;15966;51.540;11.870;2023-04-01T02:57:08;4.38;;;1.55;;
28828;SDS011;15966;51.540;11.870;2023-04-01T02:59:34;5.32;;;2.38;;
28828;SDS011;15966;51.540;11.870;2023-04-01T03:02:00;6.28;;;1.60;;
28828;SDS011;15966;51.540;11.870;2023-04-01T03:04:26;2.75;;;1.67;;
28828;SDS011;15966;51.540;11.870;2023-04-01T03:06:52;2.90;;;1.67;;
28828;SDS011;15966;51.540;11.870;2023-04-01T03:09:18;2.67;;;1.65;;
28828;SDS011;15966;51.540;11.870;2023-04-01T03:11:44;2.40;;;1.63;;
28828;SDS011;15966;51.540;11.870;2023-04-01T03:14:10;5.05;;;1.75;;
28828;SDS011;15966;51.540;11.870;2023-04-01T03:16:36;2.45;;;1.60;;
28828;SDS011;15966;51.540;11.870;2023-04-01T03:19:02;2.60;;;1.70;;
28828;SDS011;15966;51.540;11.870;2023-04-01T03:21:29;3.05;;;1.50;;
28828;SDS011;15966;51.540;11.870;2023-04-01T03:23:55;4.80;;;2.03;;
28828;SDS011;15966;51.540;11.870;2023-04-01T03:26:21;4.30;;;1.30;;
28828;SDS011;15966;51.540;11.870;2023-04-01T03:28:47;2.55;;;1.80;;
28828;SDS011;15966;51.540;11.870;2023-04-01T03:31:13;3.50;;;1.60;;
28828;SDS011;15966;51.540;11.870;2023-04-01T03:33:41;4.35;;;2.00;;
28828;SDS011;15966;51.540;11.870;2023-04-01T03:36:07;4.38;;;1.95;;
28828;SDS011;15966;51.540;11.870;2023-04-01T03:38:34;1.98;;;1.65;;
28828;SDS011;15966;51.540;11.870;2023-04-01T03:41:00;2.15;;;1.27;;
28828;SDS011;15966;51.540;11.870;2023-04-01T03:43:27;3.88;;;1.73;;
28828;SDS011;15966;51.540;11.870;2023-04-01T03:45:53;5.13;;;1.42;;
28828;SDS011;15966;51.540;11.870;2023-04-01T03:48:20;2.83;;;1.67;;
28828;SDS011;15966;51.540;11.870;2023-04-01T03:50:46;5.13;;;2.05;;
28828;SDS011;15966;51.540;11.870;2023-04-01T03:53:12;1.70;;;1.27;;
28828;SDS011;15966;51.540;11.870;2023-04-01T03:55:39;5.45;;;2.10;;
28828;SDS011;15966;51.540;11.870;2023-04-01T03:58:05;2.40;;;1.70;;
28828;SDS011;15966;51.540;11.870;2023-04-01T04:00:32;2.53;;;1.77;;
28828;SDS011;15966;51.540;11.870;2023-04-01T04:02:58;6.68;;;1.35;;
28828;SDS011;15966;51.540;11.870;2023-04-01T04:05:24;2.80;;;2.03;;
28828;SDS011;15966;51.540;11.870;2023-04-01T04:07:51;2.42;;;1.08;;
28828;SDS011;15966;51.540;11.870;2023-04-01T04:10:18;3.78;;;1.88;;
28828;SDS011;15966;51.540;11.870;2023-04-01T04:12:45;1.73;;;1.38;;
28828;SDS011;15966;51.540;11.870;2023-04-01T04:15:11;1.90;;;1.77;;
28828;SDS011;15966;51.540;11.870;2023-04-01T04:17:37;4.65;;;1.50;;
28828;SDS011;15966;51.540;11.870;2023-04-01T04:20:04;1.98;;;1.45;;
28828;SDS011;15966;51.540;11.870;2023-04-01T04:22:30;3.47;;;2.10;;
28828;SDS011;15966;51.540;11.870;2023-04-01T04:24:56;1.88;;;1.27;;
28828;SDS011;15966;51.540;11.870;2023-04-01T04:27:22;4.68;;;2.28;;
28828;SDS011;15966;51.540;11.870;2023-04-01T04:29:48;2.50;;;1.92;;
28828;SDS011;15966;51.540;11.870;2023-04-01T04:32:14;3.33;;;1.88;;
28828;SDS011;15966;51.540;11.870;2023-04-01T04:34:40;1.50;;;1.40;;
28828;SDS011;15966;51.540;11.870;2023-04-01T04:37:06;2.13;;;1.70;;
28828;SDS011;15966;51.540;11.870;2023-04-01T04:39:32;2.78;;;1.75;;
28828;SDS011;15966;51.540;11.870;2023-04-01T04:41:59;3.30;;;1.50;;
28828;SDS011;15966;51.540;11.870;2023-04-01T04:44:25;5.53;;;2.13;;
28828;SDS011;15966;51.540;11.870;2023-04-01T04:46:51;1.48;;;1.20;;
28828;SDS011;15966;51.540;11.870;2023-04-01T04:49:17;2.78;;;1.77;;
28828;SDS011;15966;51.540;11.870;2023-04-01T04:51:43;3.40;;;1.70;;
28828;SDS011;15966;51.540;11.870;2023-04-01T04:54:10;3.28;;;1.98;;
28828;SDS011;15966;51.540;11.870;2023-04-01T04:56:36;5.75;;;2.30;;
28828;SDS011;15966;51.540;11.870;2023-04-01T04:59:02;2.90;;;1.50;;
28828;SDS011;15966;51.540;11.870;2023-04-01T05:01:28;2.88;;;1.75;;
28828;SDS011;15966;51.540;11.870;2023-04-01T05:03:55;2.13;;;1.48;;
28828;SDS011;15966;51.540;11.870;2023-04-01T05:06:21;1.58;;;1.30;;
28828;SDS011;15966;51.540;11.870;2023-04-01T05:08:47;1.55;;;1.45;;
28828;SDS011;15966;51.540;11.870;2023-04-01T05:11:14;2.92;;;1.65;;
28828;SDS011;15966;51.540;11.870;2023-04-01T05:13:42;6.28;;;1.73;;
28828;SDS011;15966;51.540;11.870;2023-04-01T05:16:09;3.78;;;1.80;;
28828;SDS011;15966;51.540;11.870;2023-04-01T05:18:36;1.70;;;1.25;;
28828;SDS011;15966;51.540;11.870;2023-04-01T05:21:02;3.58;;;2.15;;
28828;SDS011;15966;51.540;11.870;2023-04-01T05:23:30;4.30;;;1.63;;
28828;SDS011;15966;51.540;11.870;2023-04-01T05:25:57;2.72;;;1.58;;
28828;SDS011;15966;51.540;11.870;2023-04-01T05:28:23;4.40;;;1.85;;
28828;SDS011;15966;51.540;11.870;2023-04-01T05:30:49;3.50;;;1.80;;
28828;SDS011;15966;51.540;11.870;2023-04-01T05:33:15;6.90;;;2.35;;
28828;SDS011;15966;51.540;11.870;2023-04-01T05:35:41;3.55;;;2.10;;
28828;SDS011;15966;51.540;11.870;2023-04-01T05:38:07;4.40;;;2.40;;
28828;SDS011;15966;51.540;11.870;2023-04-01T05:40:33;5.03;;;2.67;;
28828;SDS011;15966;51.540;11.870;2023-04-01T05:42:59;6.65;;;4.22;;
28828;SDS011;15966;51.540;11.870;2023-04-01T05:45:26;2.65;;;2.25;;
28828;SDS011;15966;51.540;11.870;2023-04-01T05:47:52;9.48;;;2.20;;
28828;SDS011;15966;51.540;11.870;2023-04-01T05:50:19;3.08;;;1.80;;
28828;SDS011;15966;51.540;11.870;2023-04-01T05:52:45;3.40;;;2.33;;
28828;SDS011;15966;51.540;11.870;2023-04-01T05:55:11;2.70;;;1.70;;
28828;SDS011;15966;51.540;11.870;2023-04-01T05:57:37;2.90;;;1.88;;
28828;SDS011;15966;51.540;11.870;2023-04-01T06:00:03;3.42;;;1.67;;
28828;SDS011;15966;51.540;11.870;2023-04-01T06:02:30;4.50;;;1.30;;
28828;SDS011;15966;51.540;11.870;2023-04-01T06:05:02;2.88;;;1.85;;
28828;SDS011;15966;51.540;11.870;2023-04-01T06:07:40;2.50;;;2.00;;
28828;SDS011;15966;51.540;11.870;2023-04-01T06:10:32;6.30;;;2.40;;
28828;SDS011;15966;51.540;11.870;2023-04-01T06:19:27;3.58;;;1.90;;
28828;SDS011;15966;51.540;11.870;2023-04-01T06:25:04;3.88;;;3.47;;
28828;SDS011;15966;51.540;11.870;2023-04-01T06:30:30;10.05;;;6.30;;
28828;SDS011;15966;51.540;11.870;2023-04-01T06:36:32;8.07;;;3.72;;
28828;SDS011;15966;51.540;11.870;2023-04-01T06:44:37;3.03;;;1.75;;
28828;SDS011;15966;51.540;11.870;2023-04-01T06:50:19;2.92;;;1.27;;
28828;SDS011;15966;51.540;11.870;2023-04-01T06:53:11;3.38;;;1.88;;
28828;SDS011;15966;51.540;11.870;2023-04-01T06:56:02;5.97;;;3.42;;
28828;SDS011;15966;51.540;11.870;2023-04-01T06:58:36;3.83;;;3.08;;
28828;SDS011;15966;51.540;11.870;2023-04-01T07:01:07;3.30;;;2.30;;
28828;SDS011;15966;51.540;11.870;2023-04-01T07:04:05;2.22;;;1.85;;
28828;SDS011;15966;51.540;11.870;2023-04-01T07:06:38;3.75;;;2.15;;
28828;SDS011;15966;51.540;11.870;2023-04-01T07:09:11;4.43;;;2.10;;
28828;SDS011;15966;51.540;11.870;2023-04-01T07:11:40;2.60;;;2.10;;
28828;SDS011;15966;51.540;11.870;2023-04-01T07:14:12;2.03;;;1.73;;
28828;SDS011;15966;51.540;11.870;2023-04-01T07:16:43;4.22;;;2.00;;
28828;SDS011;15966;51.540;11.870;2023-04-01T07:21:51;2.95;;;1.00;;
28828;SDS011;15966;51.540;11.870;2023-04-01T07:24:27;1.75;;;1.10;;
28828;SDS011;15966;51.540;11.870;2023-04-01T07:27:00;3.35;;;1.40;;
28828;SDS011;15966;51.540;11.870;2023-04-01T07:29:26;2.22;;;1.48;;
28828;SDS011;15966;51.540;11.870;2023-04-01T07:34:46;3.10;;;1.27;;
28828;SDS011;15966;51.540;11.870;2023-04-01T07:37:29;2.05;;;1.50;;
28828;SDS011;15966;51.540;11.870;2023-04-01T07:48:22;7.43;;;4.15;;
28828;SDS011;15966;51.540;11.870;2023-04-01T08:07:08;3.22;;;1.52;;
28828;SDS011;15966;51.540;11.870;2023-04-01T08:12:19;0.95;;;0.80;;
28828;SDS011;15966;51.540;11.870;2023-04-01T08:21:09;2.22;;;0.93;;
28828;SDS011;15966;51.540;11.870;2023-04-01T08:23:52;4.53;;;1.40;;
28828;SDS011;15966;51.540;11.870;2023-04-01T08:26:34;2.00;;;1.20;;
28828;SDS011;15966;51.540;11.870;2023-04-01T08:29:17;3.65;;;1.30;;
28828;SDS011;15966;51.540;11.870;2023-04-01T08:34:18;3.45;;;1.45;;
28828;SDS011;15966;51.540;11.870;2023-04-01T08:36:51;2.63;;;1.20;;
28828;SDS011;15966;51.540;11.870;2023-04-01T08:39:31;1.10;;;1.08;;
28828;SDS011;15966;51.540;11.870;2023-04-01T08:47:40;3.72;;;1.15;;
28828;SDS011;15966;51.540;11.870;2023-04-01T08:50:26;2.90;;;1.33;;
28828;SDS011;15966;51.540;11.870;2023-04-01T08:53:27;3.65;;;0.95;;
28828;SDS011;15966;51.540;11.870;2023-04-01T08:56:18;1.42;;;1.13;;
28828;SDS011;15966;51.540;11.870;2023-04-01T08:58:52;2.35;;;1.83;;
28828;SDS011;15966;51.540;11.870;2023-04-01T09:16:00;2.08;;;0.70;;
28828;SDS011;15966;51.540;11.870;2023-04-01T09:43:26;2.67;;;1.50;;
28828;SDS011;15966;51.540;11.870;2023-04-01T09:46:15;1.67;;;0.85;;
28828;SDS011;15966;51.540;11.870;2023-04-01T09:49:13;0.60;;;0.60;;
28828;SDS011;15966;51.540;11.870;2023-04-01T09:57:37;1.25;;;0.75;;
28828;SDS011;15966;51.540;11.870;2023-04-01T10:09:29;1.55;;;0.80;;
28828;SDS011;15966;51.540;11.870;2023-04-01T10:12:22;1.80;;;0.70;;
28828;SDS011;15966;51.540;11.870;2023-04-01T10:15:25;1.33;;;1.08;;
28828;SDS011;15966;51.540;11.870;2023-04-01T10:26:37;0.63;;;0.50;;
28828;SDS011;15966;51.540;11.870;2023-04-01T10:37:34;1.00;;;0.60;;
28828;SDS011;15966;51.540;11.870;2023-04-01T10:56:39;0.77;;;0.52;;
28828;SDS011;15966;51.540;11.870;2023-04-01T11:02:27;2.58;;;1.35;;
28828;SDS011;15966;51.540;11.870;2023-04-01T11:27:51;4.72;;;2.10;;
28828;SDS011;15966;51.540;11.870;2023-04-01T11:30:49;5.30;;;1.90;;
28828;SDS011;15966;51.540;11.870;2023-04-01T11:49:49;2.67;;;1.10;;
28828;SDS011;15966;51.540;11.870;2023-04-01T11:57:35;0.60;;;0.47;;
28828;SDS011;15966;51.540;11.870;2023-04-01T12:03:31;1.23;;;1.08;;
28828;SDS011;15966;51.540;11.870;2023-04-01T12:06:16;1.30;;;0.88;;
28828;SDS011;15966;51.540;11.870;2023-04-01T12:14:59;1.75;;;0.80;;
28828;SDS011;15966;51.540;11.870;2023-04-01T12:17:46;1.48;;;1.20;;
28828;SDS011;15966;51.540;11.870;2023-04-01T12:20:37;1.80;;;1.17;;
28828;SDS011;15966;51.540;11.870;2023-04-01T12:37:01;0.50;;;0.50;;
28828;SDS011;15966;51.540;11.870;2023-04-01T12:45:24;0.57;;;0.47;;
28828;SDS011;15966;51.540;11.870;2023-04-01T12:51:03;0.60;;;0.60;;
28828;SDS011;15966;51.540;11.870;2023-04-01T12:53:44;2.60;;;1.05;;
28828;SDS011;15966;51.540;11.870;2023-04-01T12:59:16;0.75;;;0.57;;
28828;SDS011;15966;51.540;11.870;2023-04-01T13:02:07;1.65;;;0.82;;
28828;SDS011;15966;51.540;11.870;2023-04-01T13:10:42;0.55;;;0.50;;
28828;SDS011;15966;51.540;11.870;2023-04-01T13:16:20;2.88;;;1.33;;
28828;SDS011;15966;51.540;11.870;2023-04-01T13:18:52;1.30;;;0.80;;
28828;SDS011;15966;51.540;11.870;2023-04-01T13:37:45;3.55;;;2.38;;
28828;SDS011;15966;51.540;11.870;2023-04-01T13:43:10;3.75;;;1.10;;
28828;SDS011;15966;51.540;11.870;2023-04-01T13:51:12;4.13;;;1.13;;
28828;SDS011;15966;51.540;11.870;2023-04-01T13:58:57;1.98;;;1.75;;
28828;SDS011;15966;51.540;11.870;2023-04-01T14:08:06;8.45;;;6.78;;
28828;SDS011;15966;51.540;11.870;2023-04-01T14:10:43;2.15;;;1.95;;
28828;SDS011;15966;51.540;11.870;2023-04-01T14:19:19;1.10;;;1.10;;
28828;SDS011;15966;51.540;11.870;2023-04-01T14:32:57;2.35;;;2.00;;
28828;SDS011;15966;51.540;11.870;2023-04-01T14:38:08;1.70;;;1.10;;
28828;SDS011;15966;51.540;11.870;2023-04-01T14:43:58;2.38;;;1.35;;
28828;SDS011;15966;51.540;11.870;2023-04-01T14:47:08;1.90;;;1.52;;
28828;SDS011;15966;51.540;11.870;2023-04-01T15:00:46;1.25;;;1.15;;
28828;SDS011;15966;51.540;11.870;2023-04-01T15:03:33;3.30;;;2.00;;
28828;SDS011;15966;51.540;11.870;2023-04-01T15:27:57;1.40;;;1.30;;
28828;SDS011;15966;51.540;11.870;2023-04-01T15:36:13;1.08;;;0.98;;
28828;SDS011;15966;51.540;11.870;2023-04-01T15:41:16;1.48;;;1.13;;
28828;SDS011;15966;51.540;11.870;2023-04-01T15:43:43;1.37;;;1.27;;
28828;SDS011;15966;51.540;11.870;2023-04-01T15:49:02;1.88;;;1.58;;
28828;SDS011;15966;51.540;11.870;2023-04-01T15:51:47;1.63;;;1.48;;
28828;SDS011;15966;51.540;11.870;2023-04-01T15:54:24;1.35;;;1.25;;
28828;SDS011;15966;51.540;11.870;2023-04-01T15:57:21;1.48;;;1.38;;
28828;SDS011;15966;51.540;11.870;2023-04-01T16:00:03;2.65;;;1.90;;
28828;SDS011;15966;51.540;11.870;2023-04-01T16:03:10;2.78;;;1.60;;
28828;SDS011;15966;51.540;11.870;2023-04-01T16:08:35;3.33;;;2.35;;
28828;SDS011;15966;51.540;11.870;2023-04-01T16:11:44;2.00;;;1.35;;
28828;SDS011;15966;51.540;11.870;2023-04-01T16:17:23;3.55;;;1.60;;
28828;SDS011;15966;51.540;11.870;2023-04-01T16:22:45;2.90;;;2.15;;
28828;SDS011;15966;51.540;11.870;2023-04-01T16:25:26;2.13;;;1.92;;
28828;SDS011;15966;51.540;11.870;2023-04-01T16:31:06;2.25;;;1.35;;
28828;SDS011;15966;51.540;11.870;2023-04-01T16:36:54;4.20;;;2.17;;
28828;SDS011;15966;51.540;11.870;2023-04-01T16:39:36;2.13;;;1.63;;
28828;SDS011;15966;51.540;11.870;2023-04-01T16:42:21;2.70;;;1.88;;
28828;SDS011;15966;51.540;11.870;2023-04-01T16:47:47;4.55;;;2.95;;
28828;SDS011;15966;51.540;11.870;2023-04-01T16:50:23;2.92;;;1.90;;
28828;SDS011;15966;51.540;11.870;2023-04-01T16:52:57;3.05;;;2.13;;
28828;SDS011;15966;51.540;11.870;2023-04-01T16:55:42;3.03;;;2.28;;
28828;SDS011;15966;51.540;11.870;2023-04-01T16:58:10;4.05;;;2.47;;
28828;SDS011;15966;51.540;11.870;2023-04-01T17:00:48;2.45;;;2.25;;
28828;SDS011;15966;51.540;11.870;2023-04-01T17:11:55;3.28;;;2.13;;
28828;SDS011;15966;51.540;11.870;2023-04-01T17:17:38;2.67;;;2.30;;
28828;SDS011;15966;51.540;11.870;2023-04-01T17:20:20;1.80;;;1.65;;
28828;SDS011;15966;51.540;11.870;2023-04-01T17:22:53;1.50;;;1.40;;
28828;SDS011;15966;51.540;11.870;2023-04-01T17:25:26;2.47;;;1.77;;
28828;SDS011;15966;51.540;11.870;2023-04-01T17:28:03;2.75;;;2.13;;
28828;SDS011;15966;51.540;11.870;2023-04-01T17:31:52;2.33;;;2.03;;
28828;SDS011;15966;51.540;11.870;2023-04-01T17:39:45;2.40;;;1.33;;
28828;SDS011;15966;51.540;11.870;2023-04-01T17:42:20;1.90;;;1.80;;
28828;SDS011;15966;51.540;11.870;2023-04-01T17:47:33;2.08;;;1.98;;
28828;SDS011;15966;51.540;11.870;2023-04-01T17:55:43;2.40;;;2.08;;
28828;SDS011;15966;51.540;11.870;2023-04-01T17:58:19;5.70;;;2.72;;
28828;SDS011;15966;51.540;11.870;2023-04-01T18:22:26;2.53;;;2.30;;
28828;SDS011;15966;51.540;11.870;2023-04-01T18:25:01;4.70;;;3.43;;
28828;SDS011;15966;51.540;11.870;2023-04-01T18:27:50;3.75;;;2.60;;
28828;SDS011;15966;51.540;11.870;2023-04-01T18:30:36;1.73;;;1.63;;
28828;SDS011;15966;51.540;11.870;2023-04-01T18:33:09;1.80;;;1.70;;
28828;SDS011;15966;51.540;11.870;2023-04-01T18:35:48;1.15;;;1.05;;
28828;SDS011;15966;51.540;11.870;2023-04-01T18:38:32;1.60;;;1.50;;
28828;SDS011;15966;51.540;11.870;2023-04-01T18:43:34;1.70;;;1.60;;
28828;SDS011;15966;51.540;11.870;2023-04-01T18:46:23;1.50;;;1.40;;
28828;SDS011;15966;51.540;11.870;2023-04-01T18:51:44;2.08;;;1.98;;
28828;SDS011;15966;51.540;11.870;2023-04-01T18:57:13;3.63;;;2.55;;
28828;SDS011;15966;51.540;11.870;2023-04-01T18:59:45;1.98;;;1.85;;
28828;SDS011;15966;51.540;11.870;2023-04-01T19:05:07;2.30;;;2.03;;
28828;SDS011;15966;51.540;11.870;2023-04-01T19:07:54;2.45;;;2.25;;
28828;SDS011;15966;51.540;11.870;2023-04-01T19:10:45;2.77;;;2.57;;
28828;SDS011;15966;51.540;11.870;2023-04-01T19:13:20;2.42;;;2.22;;
28828;SDS011;15966;51.540;11.870;2023-04-01T19:18:58;2.65;;;2.45;;
28828;SDS011;15966;51.540;11.870;2023-04-01T19:27:14;2.58;;;2.33;;
28828;SDS011;15966;51.540;11.870;2023-04-01T19:33:00;3.85;;;2.58;;
28828;SDS011;15966;51.540;11.870;2023-04-01T19:41:50;3.03;;;2.45;;
28828;SDS011;15966;51.540;11.870;2023-04-01T19:47:35;2.38;;;2.08;;
28828;SDS011;15966;51.540;11.870;2023-04-01T19:53:04;3.08;;;2.88;;
28828;SDS011;15966;51.540;11.870;2023-04-01T19:55:44;4.70;;;3.20;;
28828;SDS011;15966;51.540;11.870;2023-04-01T19:58:31;3.45;;;3.15;;
28828;SDS011;15966;51.540;11.870;2023-04-01T20:01:24;2.53;;;2.33;;
28828;SDS011;15966;51.540;11.870;2023-04-01T20:12:21;3.40;;;3.10;;
28828;SDS011;15966;51.540;11.870;2023-04-01T20:14:57;3.55;;;3.25;;
28828;SDS011;15966;51.540;11.870;2023-04-01T20:17:24;4.22;;;3.42;;
28828;SDS011;15966;51.540;11.870;2023-04-01T20:28:14;2.88;;;2.67;;
28828;SDS011;15966;51.540;11.870;2023-04-01T20:31:04;6.05;;;3.20;;
28828;SDS011;15966;51.540;11.870;2023-04-01T20:33:58;3.20;;;2.90;;
28828;SDS011;15966;51.540;11.870;2023-04-01T20:39:14;3.35;;;3.05;;
28828;SDS011;15966;51.540;11.870;2023-04-01T20:44:29;2.70;;;2.47;;
28828;SDS011;15966;51.540;11.870;2023-04-01T20:47:41;3.45;;;3.15;;
28828;SDS011;15966;51.540;11.870;2023-04-01T20:53:15;4.20;;;3.80;;
28828;SDS011;15966;51.540;11.870;2023-04-01T21:01:20;3.97;;;3.58;;
28828;SDS011;15966;51.540;11.870;2023-04-01T21:04:15;3.20;;;2.90;;
28828;SDS011;15966;51.540;11.870;2023-04-01T21:10:37;2.75;;;2.55;;
28828;SDS011;15966;51.540;11.870;2023-04-01T21:19:04;3.95;;;3.55;;
28828;SDS011;15966;51.540;11.870;2023-04-01T21:21:46;2.85;;;2.65;;
28828;SDS011;15966;51.540;11.870;2023-04-01T21:24:38;2.53;;;2.33;;
28828;SDS011;15966;51.540;11.870;2023-04-01T21:27:19;3.67;;;3.38;;
28828;SDS011;15966;51.540;11.870;2023-04-01T21:30:12;3.40;;;3.10;;
28828;SDS011;15966;51.540;11.870;2023-04-01T21:33:07;2.70;;;2.50;;
28828;SDS011;15966;51.540;11.870;2023-04-01T21:46:51;3.28;;;2.97;;
28828;SDS011;15966;51.540;11.870;2023-04-01T22:06:55;2.78;;;2.58;;
28828;SDS011;15966;51.540;11.870;2023-04-01T22:09:47;3.90;;;3.60;;
28828;SDS011;15966;51.540;11.870;2023-04-01T22:12:35;3.97;;;3.58;;
28828;SDS011;15966;51.540;11.870;2023-04-01T22:15:10;4.15;;;3.85;;
28828;SDS011;15966;51.540;11.870;2023-04-01T22:17:59;4.88;;;4.43;;
28828;SDS011;15966;51.540;11.870;2023-04-01T22:23:42;5.70;;;5.20;;
28828;SDS011;15966;51.540;11.870;2023-04-01T22:31:47;5.50;;;5.00;;
28828;SDS011;15966;51.540;11.870;2023-04-01T22:34:42;5.05;;;4.10;;
28828;SDS011;15966;51.540;11.870;2023-04-01T22:37:26;6.15;;;4.88;;
28828;SDS011;15966;51.540;11.870;2023-04-01T22:40:20;4.38;;;4.07;;
28828;SDS011;15966;51.540;11.870;2023-04-01T22:42:59;4.38;;;3.97;;
28828;SDS011;15966;51.540;11.870;2023-04-01T22:45:39;4.68;;;4.07;;
28828;SDS011;15966;51.540;11.870;2023-04-01T22:48:26;4.40;;;4.00;;
28828;SDS011;15966;51.540;11.870;2023-04-01T22:53:42;5.05;;;4.65;;
28828;SDS011;15966;51.540;11.870;2023-04-01T22:56:28;4.63;;;4.22;;
28828;SDS011;15966;51.540;11.870;2023-04-01T23:01:38;5.07;;;4.57;;
28828;SDS011;15966;51.540;11.870;2023-04-01T23:04:09;5.30;;;4.63;;
28828;SDS011;15966;51.540;11.870;2023-04-01T23:06:38;4.95;;;4.45;;
28828;SDS011;15966;51.540;11.870;2023-04-01T23:09:08;3.83;;;3.45;;
28828;SDS011;15966;51.540;11.870;2023-04-01T23:11:49;4.35;;;3.92;;
28828;SDS011;15966;51.540;11.870;2023-04-01T23:14:39;3.67;;;3.35;;
28828;SDS011;15966;51.540;11.870;2023-04-01T23:17:15;4.95;;;4.47;;
28828;SDS011;15966;51.540;11.870;2023-04-01T23:19:54;4.13;;;3.05;;
28828;SDS011;15966;51.540;11.870;2023-04-01T23:25:46;6.38;;;4.10;;
28828;SDS011;15966;51.540;11.870;2023-04-01T23:31:01;4.50;;;4.05;;
28828;SDS011;15966;51.540;11.870;2023-04-01T23:33:28;4.18;;;3.80;;
28828;SDS011;15966;51.540;11.870;2023-04-01T23:38:23;4.35;;;2.97;;
28828;SDS011;15966;51.540;11.870;2023-04-01T23:40:51;3.53;;;3.20;;
28828;SDS011;15966;51.540;11.870;2023-04-01T23:45:52;3.15;;;2.85;;
28828;SDS011;15966;51.540;11.870;2023-04-01T23:48:24;5.13;;;3.90;;
28828;SDS011;15966;51.540;11.870;2023-04-01T23:50:53;4.65;;;3.90;;
28828;SDS011;15966;51.540;11.870;2023-04-01T23:53:21;4.00;;;3.65;;
28828;SDS011;15966;51.540;11.870;2023-04-01T23:55:50;3.30;;;3.00;;
